Wetterdaten: aktuell Montag, 18.06.2018 18:32
Datum Zeit Temp. A. Temp. -10cm Temp. -30cm Temp. -50cm Temp. +5cm Feuchte A. Luftdruck Regen Wind Richtung Richtung Sonnenschein ET UV Solar Taupunkt Windchill Windben
18.06.2018 18:32 20.2 C 19.4 C 16.7 C 16.1 C 21.7 C 63 % 1021.6 hPa 0.0 l/m 1.9 km/h (1 Bft) O 98 5 min 0 mm 1.2 UV-I 123 W/m 12.9 C 20.2 C 3.2 km/h (1 Bft)
18.06.2018 17:35 21.1 C 19.4 C 16.7 C 16.1 C 27.2 C 61 % 1021.4 hPa 0.0 l/m 3.2 km/h (1 Bft) NW 315 20 min 0 mm 3.2 UV-I 621 W/m 13.3 C 21.1 C 8.0 km/h (2 Bft)
18.06.2018 16:30 22.8 C 18.9 C 16.7 C 16.1 C 37.2 C 59 % 1021.4 hPa 0.0 l/m 6.4 km/h (2 Bft) O 90 60 min 1 mm 5.7 UV-I 881 W/m 14.4 C 22.8 C 11.3 km/h (2 Bft)
18.06.2018 15:25 23.0 C 18.3 C 16.1 C 16.1 C 42.8 C 59 % 1021.7 hPa 0.0 l/m 6.4 km/h (2 Bft) O-NO 67 50 min 0 mm 7.6 UV-I 1060 W/m 14.5 C 23.0 C 9.7 km/h (2 Bft)
18.06.2018 14:20 21.1 C 17.2 C 16.1 C 16.1 C 27.8 C 63 % 1021.6 hPa 0.0 l/m 6.4 km/h (2 Bft) N-NW 337 35 min 0 mm 4.4 UV-I 341 W/m 13.8 C 21.1 C 9.7 km/h (2 Bft)
18.06.2018 13:15 20.6 C 16.7 C 16.1 C 16.1 C 25.0 C 67 % 1021.9 hPa 0.0 l/m 3.2 km/h (1 Bft) W-NW 292 45 min 0 mm 9.8 UV-I 1085 W/m 14.3 C 20.6 C 9.7 km/h (2 Bft)
18.06.2018 12:10 18.6 C 16.1 C 16.1 C 16.1 C 18.9 C 71 % 1021.9 hPa 0.0 l/m 4.8 km/h (1 Bft) W-NW 292 10 min 0 mm 8.6 UV-I 394 W/m 13.2 C 18.6 C 11.3 km/h (2 Bft)
18.06.2018 11:05 18.1 C 15.6 C 16.1 C 16.1 C 18.3 C 73 % 1021.5 hPa 0.0 l/m 4.8 km/h (1 Bft) N-NW 337 25 min 0 mm 3.5 UV-I 297 W/m 13.2 C 18.1 C 8.0 km/h (2 Bft)
18.06.2018 10:00 16.4 C 15.6 C 16.1 C 16.1 C 16.7 C 80 % 1021.8 hPa 0.0 l/m 6.4 km/h (2 Bft) O 90 55 min 0 mm 3.1 UV-I 364 W/m 12.9 C 16.4 C 11.3 km/h (2 Bft)
18.06.2018 08:55 14.8 C 15.6 C 16.7 C 16.1 C 17.8 C 85 % 1021.8 hPa 0.0 l/m 1.6 km/h (1 Bft) O 90 0 min 0 mm 1.3 UV-I 239 W/m 12.3 C 14.8 C 4.8 km/h (1 Bft)
18.06.2018 07:50 14.1 C 15.6 C 16.7 C 16.1 C 15.6 C 88 % 1021.3 hPa 0.0 l/m 4.8 km/h (1 Bft) O 90 0 min 0 mm 0.0 UV-I 109 W/m 12.1 C 14.1 C 8.0 km/h (2 Bft)
18.06.2018 06:45 13.2 C 15.6 C 16.7 C 16.1 C 14.4 C 91 % 1021.3 hPa 0.0 l/m 3.2 km/h (1 Bft) O-NO 67 0 min 0 mm 0.0 UV-I 28 W/m 11.8 C 13.2 C 4.8 km/h (1 Bft)
18.06.2018 05:40 13.1 C 15.6 C 16.7 C 16.1 C 13.9 C 91 % 1021.0 hPa 0.0 l/m 4.8 km/h (1 Bft) O 90 0 min 0 mm 0.0 UV-I 0 W/m 11.7 C 13.1 C 6.4 km/h (2 Bft)
18.06.2018 04:35 13.2 C 16.1 C 16.7 C 16.1 C 13.9 C 91 % 1020.8 hPa 0.0 l/m 3.2 km/h (1 Bft) O 90 0 min 0 mm 0.0 UV-I 0 W/m 11.8 C 13.2 C 6.4 km/h (2 Bft)
18.06.2018 03:30 13.3 C 16.1 C 16.7 C 16.1 C 14.4 C 92 % 1020.7 hPa 0.0 l/m 3.2 km/h (1 Bft) O-NO 67 0 min 0 mm 0.0 UV-I 0 W/m 12.0 C 13.3 C 6.4 km/h (2 Bft)
18.06.2018 02:25 13.7 C 16.7 C 17.2 C 16.1 C 13.9 C 91 % 1021.0 hPa 0.0 l/m 0.0 km/h (0 Bft) N 0 0 min 0 mm 0.0 UV-I 0 W/m 12.3 C 13.7 C 0.0 km/h (0 Bft)
18.06.2018 01:20 13.8 C 16.7 C 17.2 C 16.1 C 13.9 C 92 % 1020.9 hPa 0.0 l/m 0.0 km/h (0 Bft) N 0 0 min 0 mm 0.0 UV-I 0 W/m 12.5 C 13.8 C 0.0 km/h (0 Bft)
18.06.2018 00:15 13.7 C 17.2 C 17.2 C 16.1 C 14.4 C 92 % 1020.8 hPa 0.0 l/m 6.4 km/h (2 Bft) SO 135 0 min 0 mm 0.0 UV-I 0 W/m 12.4 C 13.7 C 9.7 km/h (2 Bft)
17.06.2018 23:10 14.1 C 17.2 C 17.2 C 16.1 C 14.4 C 89 % 1020.7 hPa 0.2 l/m 0.0 km/h (0 Bft) SO 135 0 min 0 mm 0.0 UV-I 0 W/m 12.3 C 14.1 C 3.2 km/h (1 Bft)
17.06.2018 22:05 15.0 C 17.8 C 17.2 C 16.1 C 15.0 C 88 % 1020.3 hPa 0.0 l/m 1.6 km/h (1 Bft) O 90 0 min 0 mm 0.0 UV-I 0 W/m 13.0 C 15.0 C 8.0 km/h (2 Bft)
17.06.2018 21:00 15.6 C 17.8 C 17.2 C 16.1 C 16.1 C 88 % 1019.2 hPa 0.0 l/m 1.6 km/h (1 Bft) O-SO 112 0 min 0 mm 0.0 UV-I 9 W/m 13.6 C 15.6 C 3.2 km/h (1 Bft)
17.06.2018 19:55 15.9 C 18.3 C 17.2 C 16.1 C 17.2 C 88 % 1018.8 hPa 0.0 l/m 1.6 km/h (1 Bft) NO 45 0 min 0 mm 0.0 UV-I 23 W/m 13.9 C 15.9 C 4.8 km/h (1 Bft)
17.06.2018 19:00 16.3 C 18.3 C 16.7 C 16.1 C 17.8 C 86 % 1018.1 hPa 0.0 l/m 1.6 km/h (1 Bft) NO 45 0 min 0 mm 0.0 UV-I 35 W/m 14.0 C 16.3 C 6.4 km/h (2 Bft)
_ Min-Zeit 05:35 05:40 09:30 19:00 00:50 16:05 19:00 - 19:30 - - - - - - 06:05 23:55 20:35
Minimum _ 13.1 C 15.6 C 16.1 C 16.1 C 13.9 C 54 % 1018.1 hPa - 0.0 km/h (0 Bft) - - - - - - 11.5 C 11.8 C 0.0 km/h (0 Bft)
_ Max-Zeit 15:30 16:55 19:10 19:00 15:25 00:15 12:25 22:30 23:55 - - 09:05 16:00 13:35 15:20 13:00 15:30 15:10
Maximum _ 23.3 C 19.4 C 17.2 C 16.1 C 42.8 C 92 % 1022.0 hPa 0.2 l/m 9.7 km/h
SO (2 Bft)
- - 5 min 1 mm 10.1 UV-I 1144 W/m 15.4 C 23.3 C 16.1 km/h
O-NO (3 Bft)
Durchschnitt _ 16.4 C 17.0 C 16.7 C 16.1 C 19.1 C 81 % 1020.8 hPa #0.2 l/m 3.1 km/h (1 Bft) O - #5:15 h #3.251 mm 4.9 UV-I 457 W/m 13.0 C 16.4 C 6.7 km/h (2 Bft)